Current Conditions
Mostly Cloudy
Conditions



Pressure
1022.92 (hPa) - 30.21 (inHG)
Visibility

6.2 (mimiles) - 10.0 (km)
   Temperature
10  °C
50°F
7  °C
Dewpoint
82  %
 Humidity
   Wind Speed
9  kts
10  mph
16  km/h
4.5  m/s
   Wind Direction
 230°
South West
   Airport Data
EGHI
Location Southampton 35 mi (56.32 km)
Metar :EGHI 222050Z 23009KT 9999 BKN025 10/07 Q1023
Sat 22nd February 20:50 pm
   Raw Metar Info
Raw METAR is the most common format in the world for the transmission of observational weather data. It is highly standardized through the International Civil Aviation Organization (ICAO), which allows it to be understood throughout most of the world.
   API Info
Data Provided by
https://www.checkwx.com/weather/EGHI
   © Info
CSS/SVG/PHP scripts were developed by weather34.com for use in the weather34 template © 2015-2020

Guide Info provided by Metar-Wikipedia